Time;durP1;ratioP1;P1;durP2;ratioP2;P2;SDS_P1;SDS_P2;PMS_P1;PMS_P2;Temp;Humidity;BMP_temperature;BMP_pressure;BME280_temperature;BME280_humidity;BME280_pressure;Samples;Min_cycle;Max_cycle;Signal;HPM_P1;HPM_P2
2022/02/27 00:01:58;;;;;;;3.53;2.80;;;7.90;99.90;;;;;;6333073;22;20159;-90
2022/02/27 00:04:33;;;;;;;4.40;2.67;;;7.70;99.90;;;;;;6326945;22;20166;-92
2022/02/27 00:07:04;;;;;;;3.67;2.30;;;7.30;99.90;;;;;;6329861;22;20499;-93
2022/02/27 00:09:35;;;;;;;4.30;2.30;;;7.00;99.90;;;;;;6335540;22;20160;-93
2022/02/27 00:14:45;;;;;;;8.20;2.20;;;6.90;99.90;;;;;;6301808;22;20201;-87
2022/02/27 00:19:51;;;;;;;4.00;2.30;;;6.90;99.90;;;;;;6348138;22;20197;-93
2022/02/27 00:24:58;;;;;;;3.47;2.17;;;6.70;99.90;;;;;;6328263;22;20199;-85
2022/02/27 00:30:08;;;;;;;4.47;2.50;;;6.50;99.90;;;;;;6344178;22;20226;-92
2022/02/27 00:32:41;;;;;;;3.87;2.40;;;6.50;99.90;;;;;;6366428;22;20187;-92
2022/02/27 00:35:12;;;;;;;3.63;2.33;;;6.40;99.90;;;;;;6363746;22;20170;-93
2022/02/27 00:37:44;;;;;;;3.87;2.70;;;6.40;99.90;;;;;;6364550;22;20164;-92
2022/02/27 00:40:16;;;;;;;5.03;2.77;;;6.40;99.90;;;;;;6346108;22;20237;-93
2022/02/27 00:42:47;;;;;;;3.13;2.60;;;6.30;99.90;;;;;;6359791;22;20170;-92
2022/02/27 00:45:20;;;;;;;7.07;3.03;;;6.40;99.90;;;;;;6359796;22;20170;-92
2022/02/27 00:47:52;;;;;;;9.53;3.03;;;6.40;99.90;;;;;;6355780;22;20189;-92
2022/02/27 00:50:24;;;;;;;5.03;3.03;;;6.40;99.90;;;;;;6359377;22;20267;-92
2022/02/27 00:52:55;;;;;;;5.20;2.77;;;6.30;99.90;;;;;;6366600;22;20205;-93
2022/02/27 00:55:27;;;;;;;5.50;2.80;;;6.30;99.90;;;;;;6366412;22;20166;-92
2022/02/27 00:57:57;;;;;;;7.83;2.83;;;6.30;99.90;;;;;;6364909;22;20177;-92
2022/02/27 01:00:30;;;;;;;7.40;3.40;;;6.30;99.90;;;;;;6366514;22;20161;-91
2022/02/27 01:03:02;;;;;;;4.37;3.00;;;6.30;99.90;;;;;;6366370;22;20161;-91
2022/02/27 01:05:34;;;;;;;4.07;2.90;;;6.30;99.90;;;;;;6366634;22;20235;-92
2022/02/27 01:08:05;;;;;;;5.17;2.80;;;6.30;99.90;;;;;;6365728;22;20164;-93
2022/02/27 01:10:36;;;;;;;6.70;3.00;;;6.30;99.90;;;;;;6365870;22;20176;-92
2022/02/27 01:13:06;;;;;;;6.83;3.10;;;6.20;99.90;;;;;;6365033;22;20198;-93
2022/02/27 01:15:39;;;;;;;5.60;3.33;;;6.20;99.90;;;;;;6364846;22;20181;-93
2022/02/27 01:18:10;;;;;;;5.53;3.23;;;6.10;99.90;;;;;;6364845;22;20154;-92
2022/02/27 01:20:42;;;;;;;4.70;3.13;;;6.10;99.90;;;;;;6363264;22;20152;-93
2022/02/27 01:23:13;;;;;;;7.80;3.37;;;6.20;99.90;;;;;;6364349;22;20161;-91
2022/02/27 01:25:44;;;;;;;4.50;3.07;;;6.30;99.90;;;;;;6325987;22;20194;-92
2022/02/27 01:28:18;;;;;;;5.50;3.93;;;6.20;99.90;;;;;;6362756;22;20238;-93
2022/02/27 01:30:51;;;;;;;6.63;2.97;;;6.10;99.90;;;;;;6366190;22;20154;-93
2022/02/27 01:33:22;;;;;;;3.57;2.87;;;6.00;99.90;;;;;;6348954;22;20201;-92
2022/02/27 01:38:29;;;;;;;5.13;2.20;;;6.00;99.90;;;;;;6321642;22;20209;-93
2022/02/27 01:41:01;;;;;;;7.10;2.47;;;5.90;99.90;;;;;;6364011;22;20177;-93
2022/02/27 01:43:32;;;;;;;4.90;1.90;;;5.80;99.90;;;;;;6336636;22;20190;-92
2022/02/27 01:46:09;;;;;;;6.47;2.17;;;5.80;99.90;;;;;;6354163;22;20173;-92
2022/02/27 01:48:41;;;;;;;3.87;1.90;;;5.80;99.90;;;;;;6344835;22;20626;-92
2022/02/27 01:51:13;;;;;;;2.70;1.70;;;5.80;99.90;;;;;;6344340;22;20489;-93
2022/02/27 01:53:44;;;;;;;4.10;2.13;;;5.70;99.90;;;;;;6351483;22;20189;-92
2022/02/27 01:56:16;;;;;;;3.07;1.80;;;5.70;99.90;;;;;;6347315;22;20173;-93
2022/02/27 01:58:47;;;;;;;3.50;1.97;;;5.70;99.90;;;;;;6346316;22;20166;-93
2022/02/27 02:01:20;;;;;;;4.63;1.73;;;5.70;99.90;;;;;;6349892;22;20166;-92
2022/02/27 02:03:54;;;;;;;4.40;2.10;;;5.60;99.90;;;;;;6357477;22;20166;-93
2022/02/27 02:06:25;;;;;;;4.20;1.97;;;5.60;99.90;;;;;;6345901;22;20211;-93
2022/02/27 02:08:56;;;;;;;4.77;2.07;;;5.60;99.90;;;;;;6346764;22;20166;-92
2022/02/27 02:11:27;;;;;;;3.30;2.07;;;5.60;99.90;;;;;;6347155;22;20192;-93
2022/02/27 02:13:58;;;;;;;4.27;2.00;;;5.60;99.90;;;;;;6345233;22;20166;-93
2022/02/27 02:16:40;;;;;;;3.20;2.00;;;5.60;99.90;;;;;;6345892;22;20209;-93
2022/02/27 02:19:11;;;;;;;3.40;2.17;;;5.60;99.90;;;;;;6345018;22;20181;-93
2022/02/27 02:21:45;;;;;;;2.33;1.90;;;5.70;99.90;;;;;;6354382;22;20182;-92
2022/02/27 02:24:17;;;;;;;3.47;2.00;;;5.80;99.90;;;;;;6366453;22;20161;-91
2022/02/27 02:26:49;;;;;;;3.23;2.30;;;5.60;99.90;;;;;;6364725;22;20476;-91
2022/02/27 02:29:22;;;;;;;7.17;3.13;;;5.50;99.90;;;;;;6347589;22;20450;-91
2022/02/27 02:31:57;;;;;;;9.47;4.60;;;5.60;99.90;;;;;;6343246;22;20243;-91
2022/02/27 02:34:29;;;;;;;8.37;4.50;;;5.50;99.90;;;;;;6346958;22;20165;-92
2022/02/27 02:37:01;;;;;;;7.60;4.97;;;5.40;99.90;;;;;;6347414;22;20173;-90
2022/02/27 02:39:33;;;;;;;10.63;4.93;;;5.30;99.90;;;;;;6343896;22;20201;-93
2022/02/27 02:42:03;;;;;;;9.80;4.67;;;5.20;99.90;;;;;;6344931;22;20166;-93
2022/02/27 02:44:35;;;;;;;7.20;4.77;;;5.10;99.90;;;;;;6352340;22;20181;-92
2022/02/27 02:47:06;;;;;;;6.73;4.83;;;5.20;99.90;;;;;;6347051;22;20154;-91
2022/02/27 02:49:37;;;;;;;10.90;4.93;;;5.20;99.90;;;;;;6343748;22;20166;-92
2022/02/27 02:52:10;;;;;;;10.00;5.33;;;5.20;99.90;;;;;;6316081;22;20197;-93
2022/02/27 02:54:40;;;;;;;7.10;4.50;;;5.20;99.90;;;;;;6347304;22;20166;-92
2022/02/27 02:57:14;;;;;;;8.80;4.97;;;5.10;99.90;;;;;;6345519;22;20206;-92
2022/02/27 02:59:45;;;;;;;8.33;5.03;;;5.20;99.90;;;;;;6342892;22;20202;-92
2022/02/27 03:02:16;;;;;;;7.80;5.87;;;5.10;99.90;;;;;;6317270;22;20620;-92
2022/02/27 03:04:48;;;;;;;7.47;5.30;;;5.20;99.90;;;;;;6343992;22;20208;-92
2022/02/27 03:07:21;;;;;;;8.47;5.30;;;5.20;99.90;;;;;;6343828;22;20197;-92
2022/02/27 03:09:51;;;;;;;11.57;5.37;;;5.00;99.90;;;;;;6350829;22;20172;-93
2022/02/27 03:12:23;;;;;;;9.13;5.30;;;5.00;99.90;;;;;;6343969;22;20201;-93
2022/02/27 03:14:54;;;;;;;9.90;5.60;;;5.00;99.90;;;;;;6359849;22;20172;-92
2022/02/27 03:17:26;;;;;;;11.47;5.93;;;5.00;99.90;;;;;;6366425;22;20166;-93
2022/02/27 03:19:58;;;;;;;11.80;6.07;;;4.90;99.90;;;;;;6360595;22;20178;-91
2022/02/27 03:22:31;;;;;;;11.53;5.90;;;4.90;99.90;;;;;;6353142;22;20158;-92
2022/02/27 03:25:02;;;;;;;10.03;6.67;;;4.90;99.90;;;;;;6356305;22;20178;-92
2022/02/27 03:27:33;;;;;;;8.60;5.87;;;4.90;99.90;;;;;;6352971;22;20177;-92
2022/02/27 03:30:05;;;;;;;9.30;6.83;;;5.00;99.90;;;;;;6354331;22;20154;-91
2022/02/27 03:32:37;;;;;;;11.50;8.03;;;5.00;99.90;;;;;;6357403;22;20193;-91
2022/02/27 03:35:10;;;;;;;12.00;8.60;;;5.00;99.90;;;;;;6331834;22;20174;-92
2022/02/27 03:37:44;;;;;;;11.60;7.67;;;5.00;99.90;;;;;;6354051;22;20165;-92
2022/02/27 03:40:15;;;;;;;13.80;7.57;;;4.90;99.90;;;;;;6355891;22;20181;-92
2022/02/27 03:42:46;;;;;;;10.63;6.80;;;4.90;99.90;;;;;;6342026;22;20565;-92
2022/02/27 03:45:18;;;;;;;11.13;7.53;;;5.00;99.90;;;;;;6354985;22;20189;-93
2022/02/27 03:47:50;;;;;;;11.33;7.13;;;5.00;99.90;;;;;;6341107;22;20174;-92
2022/02/27 03:50:21;;;;;;;12.40;8.20;;;5.00;99.90;;;;;;6348610;22;20627;-92
2022/02/27 03:52:54;;;;;;;9.20;7.03;;;5.00;99.90;;;;;;6342109;22;20197;-93
2022/02/27 03:55:25;;;;;;;10.67;6.67;;;5.00;99.90;;;;;;6355545;22;20165;-93
2022/02/27 03:57:56;;;;;;;8.30;5.60;;;5.10;99.90;;;;;;6356370;22;20166;-92
2022/02/27 04:00:27;;;;;;;9.67;5.67;;;5.00;99.90;;;;;;6357403;22;20177;-91
2022/02/27 04:02:58;;;;;;;6.53;4.70;;;5.00;99.90;;;;;;6354941;22;20173;-92
2022/02/27 04:05:30;;;;;;;6.73;4.60;;;5.00;99.90;;;;;;6352026;22;20150;-93
2022/02/27 04:08:03;;;;;;;6.53;4.00;;;5.00;99.90;;;;;;6350307;22;20189;-92
2022/02/27 04:10:34;;;;;;;5.60;3.97;;;5.10;99.90;;;;;;6345533;22;20170;-92
2022/02/27 04:13:05;;;;;;;4.67;3.80;;;5.10;99.90;;;;;;6342804;22;20234;-93
2022/02/27 04:15:36;;;;;;;4.93;3.37;;;5.10;99.90;;;;;;6344336;22;20248;-93
2022/02/27 04:18:08;;;;;;;4.43;2.70;;;5.10;99.90;;;;;;6341101;22;20170;-93
2022/02/27 04:20:38;;;;;;;5.87;2.90;;;5.10;99.90;;;;;;6346353;22;20178;-92
2022/02/27 04:23:12;;;;;;;3.00;2.50;;;5.20;99.90;;;;;;6342520;22;20194;-93
2022/02/27 04:25:42;;;;;;;6.47;3.13;;;5.20;99.90;;;;;;6345142;22;20186;-91
2022/02/27 04:28:14;;;;;;;4.43;3.13;;;5.10;99.90;;;;;;6344388;22;20177;-92
2022/02/27 04:30:45;;;;;;;4.93;3.27;;;5.00;99.90;;;;;;6345887;22;20165;-92
2022/02/27 04:33:18;;;;;;;9.57;4.30;;;5.00;99.90;;;;;;6349491;22;20177;-93
2022/02/27 04:35:49;;;;;;;14.97;5.30;;;5.10;99.90;;;;;;6363174;22;20162;-93
2022/02/27 04:38:22;;;;;;;11.17;5.90;;;5.10;99.90;;;;;;6364188;22;20166;-93
2022/02/27 04:40:52;;;;;;;7.63;5.57;;;5.10;99.90;;;;;;6350340;22;20506;-92
2022/02/27 04:43:23;;;;;;;6.93;5.30;;;5.00;99.90;;;;;;6342928;22;20212;-92
2022/02/27 04:45:55;;;;;;;9.77;5.93;;;5.10;99.90;;;;;;6342267;22;20169;-93
2022/02/27 04:48:26;;;;;;;7.13;5.43;;;5.10;99.90;;;;;;6341260;22;20207;-92
2022/02/27 04:50:56;;;;;;;5.30;4.33;;;5.10;99.90;;;;;;6315095;22;20173;-92
2022/02/27 04:53:29;;;;;;;5.23;4.20;;;5.10;99.90;;;;;;6341570;22;20652;-92
2022/02/27 04:56:00;;;;;;;5.57;3.70;;;5.20;99.90;;;;;;6341371;22;20173;-93
2022/02/27 04:58:31;;;;;;;6.43;5.10;;;5.20;99.90;;;;;;6340639;22;20184;-93
2022/02/27 05:01:03;;;;;;;7.63;5.53;;;5.30;99.90;;;;;;6341987;22;20639;-93
2022/02/27 05:03:34;;;;;;;8.87;6.43;;;5.30;99.90;;;;;;6341230;22;20204;-93
2022/02/27 05:06:05;;;;;;;13.17;9.53;;;5.20;99.90;;;;;;6340879;22;20247;-93
2022/02/27 05:08:38;;;;;;;16.00;11.20;;;5.20;99.90;;;;;;6340635;22;20169;-92
2022/02/27 05:11:09;;;;;;;18.03;11.63;;;5.10;99.90;;;;;;6341749;22;20498;-92
2022/02/27 05:13:41;;;;;;;18.47;12.27;;;5.10;99.90;;;;;;6341172;22;20246;-92
2022/02/27 05:16:12;;;;;;;18.57;13.50;;;5.00;99.90;;;;;;6344845;22;20185;-92
2022/02/27 05:18:43;;;;;;;19.87;12.97;;;5.00;99.90;;;;;;6341869;22;20176;-93
2022/02/27 05:21:15;;;;;;;21.00;14.47;;;5.00;99.90;;;;;;6346839;22;20178;-92
2022/02/27 05:23:49;;;;;;;18.90;14.00;;;5.10;99.90;;;;;;6343226;22;20537;-92
2022/02/27 05:26:20;;;;;;;20.43;13.37;;;5.10;99.90;;;;;;6349146;22;20176;-93
2022/02/27 05:28:51;;;;;;;15.63;11.23;;;5.00;99.90;;;;;;6350720;22;20184;-93
2022/02/27 05:31:23;;;;;;;20.90;12.47;;;5.00;99.90;;;;;;6350271;22;20579;-93
2022/02/27 05:33:54;;;;;;;15.50;11.73;;;5.00;99.90;;;;;;6351403;22;20273;-93
2022/02/27 05:36:27;;;;;;;16.23;12.00;;;5.00;99.90;;;;;;6349126;22;20224;-93
2022/02/27 05:39:00;;;;;;;15.77;11.83;;;5.10;99.90;;;;;;6352445;22;20179;-93
2022/02/27 05:41:31;;;;;;;16.57;11.90;;;5.10;99.90;;;;;;6347798;22;20181;-92
2022/02/27 05:44:02;;;;;;;16.97;13.13;;;5.20;99.90;;;;;;6347848;22;20238;-93
2022/02/27 05:46:34;;;;;;;15.17;11.70;;;5.20;99.90;;;;;;6346514;22;20242;-92
2022/02/27 05:49:05;;;;;;;15.63;11.73;;;5.20;99.90;;;;;;6344665;22;20173;-92
2022/02/27 05:51:36;;;;;;;15.60;12.43;;;5.10;99.90;;;;;;6348920;22;20174;-93
2022/02/27 05:54:09;;;;;;;18.70;12.87;;;5.20;99.90;;;;;;6341862;22;20217;-93
2022/02/27 05:56:40;;;;;;;15.30;11.13;;;5.10;99.90;;;;;;6342510;22;20608;-93
2022/02/27 05:59:11;;;;;;;13.07;10.60;;;5.20;99.90;;;;;;6341395;22;20193;-92
2022/02/27 06:01:43;;;;;;;9.97;8.27;;;5.20;99.90;;;;;;6342589;22;20167;-94
2022/02/27 06:04:14;;;;;;;11.87;8.97;;;5.20;99.90;;;;;;6342780;22;20476;-93
2022/02/27 06:06:45;;;;;;;9.47;7.30;;;5.20;99.90;;;;;;6344842;22;20173;-92
2022/02/27 06:09:19;;;;;;;8.77;6.30;;;5.30;99.90;;;;;;6347493;22;20537;-93
2022/02/27 06:11:50;;;;;;;8.33;6.40;;;5.30;99.90;;;;;;6345502;22;20197;-93
2022/02/27 06:14:22;;;;;;;8.67;7.00;;;5.30;99.90;;;;;;6345035;22;20193;-93
2022/02/27 06:16:54;;;;;;;11.40;6.50;;;5.30;99.90;;;;;;6350917;22;20162;-93
2022/02/27 06:19:25;;;;;;;9.63;5.33;;;5.30;99.90;;;;;;6342634;22;20188;-93
2022/02/27 06:21:56;;;;;;;10.63;5.13;;;5.20;99.90;;;;;;6343724;22;20173;-94
2022/02/27 06:24:30;;;;;;;7.17;4.10;;;5.20;99.90;;;;;;6344566;22;20189;-94
2022/02/27 06:27:03;;;;;;;6.50;4.60;;;5.20;99.90;;;;;;6341038;22;20275;-93
2022/02/27 06:29:33;;;;;;;5.10;3.53;;;5.20;99.90;;;;;;6346890;22;20166;-94
2022/02/27 06:32:04;;;;;;;6.67;4.13;;;5.20;99.90;;;;;;6341488;22;20197;-93
2022/02/27 06:34:35;;;;;;;4.27;3.30;;;5.30;99.90;;;;;;6342972;22;20213;-92
2022/02/27 06:37:07;;;;;;;4.13;3.07;;;5.30;99.90;;;;;;6340959;22;20256;-92
2022/02/27 06:39:39;;;;;;;4.93;3.47;;;5.30;99.90;;;;;;6315961;22;20285;-93
2022/02/27 06:42:10;;;;;;;4.93;2.50;;;5.40;99.90;;;;;;6342502;22;20620;-93
2022/02/27 06:44:41;;;;;;;3.57;2.97;;;5.30;99.90;;;;;;6343566;22;20216;-93
2022/02/27 06:47:13;;;;;;;3.83;3.00;;;5.30;99.90;;;;;;6343129;22;20166;-92
2022/02/27 06:49:44;;;;;;;4.30;2.60;;;5.30;99.90;;;;;;6344594;22;20480;-92
2022/02/27 06:52:15;;;;;;;7.40;2.57;;;5.30;99.90;;;;;;6316974;22;20246;-93
2022/02/27 06:54:48;;;;;;;3.50;2.80;;;5.30;99.90;;;;;;6332429;22;20178;-93
2022/02/27 06:57:19;;;;;;;3.40;2.60;;;5.30;99.90;;;;;;6365290;22;20173;-92
2022/02/27 06:59:51;;;;;;;4.63;2.63;;;5.40;99.90;;;;;;6364793;22;20173;-91
2022/02/27 07:02:23;;;;;;;4.57;2.73;;;5.40;99.90;;;;;;6348417;22;20213;-93
2022/02/27 07:04:54;;;;;;;3.90;2.67;;;5.40;99.90;;;;;;6345641;22;20595;-93
2022/02/27 07:07:24;;;;;;;3.20;2.67;;;5.40;99.90;;;;;;6342890;22;20205;-94
2022/02/27 07:10:00;;;;;;;3.60;2.73;;;5.40;99.90;;;;;;6343910;22;20170;-93
2022/02/27 07:12:32;;;;;;;4.87;2.93;;;5.40;99.90;;;;;;6342143;22;20165;-93
2022/02/27 07:15:04;;;;;;;3.30;2.90;;;5.40;99.90;;;;;;6341754;22;20716;-94
2022/02/27 07:17:36;;;;;;;3.70;2.67;;;5.40;99.90;;;;;;6339935;22;20234;-92
2022/02/27 07:20:08;;;;;;;2.80;2.30;;;5.40;99.90;;;;;;6341066;22;20206;-93
2022/02/27 07:22:40;;;;;;;4.30;2.80;;;5.40;99.90;;;;;;6341436;22;20189;-92
2022/02/27 07:25:12;;;;;;;4.07;2.90;;;5.40;99.90;;;;;;6342817;22;20227;-92
2022/02/27 07:27:43;;;;;;;2.77;2.47;;;5.40;99.90;;;;;;6338773;22;20240;-93
2022/02/27 07:30:15;;;;;;;3.57;2.40;;;5.40;99.90;;;;;;6341713;22;20201;-92
2022/02/27 07:32:45;;;;;;;2.83;2.53;;;5.40;99.90;;;;;;6341639;22;20632;-93
2022/02/27 07:35:16;;;;;;;4.07;2.80;;;5.40;99.90;;;;;;6341391;22;20205;-93
2022/02/27 07:37:47;;;;;;;4.40;2.67;;;5.40;99.90;;;;;;6339965;22;20189;-93
2022/02/27 07:40:20;;;;;;;8.03;3.23;;;5.40;99.90;;;;;;6314446;22;20193;-93
2022/02/27 07:42:50;;;;;;;4.33;3.00;;;5.40;99.90;;;;;;6345802;22;20553;-92
2022/02/27 07:45:22;;;;;;;3.77;2.57;;;5.40;99.90;;;;;;6341900;22;20212;-93
2022/02/27 07:47:52;;;;;;;3.60;2.67;;;5.40;99.90;;;;;;6340216;22;20214;-94
2022/02/27 07:50:24;;;;;;;3.00;2.50;;;5.40;99.90;;;;;;6341024;22;20502;-94
2022/02/27 07:52:55;;;;;;;3.00;2.27;;;5.40;99.90;;;;;;6341192;22;20222;-94
2022/02/27 07:55:31;;;;;;;3.77;2.20;;;5.40;99.90;;;;;;6340653;22;20201;-94
2022/02/27 07:58:02;;;;;;;2.60;1.90;;;5.40;99.90;;;;;;6339980;22;20166;-94
2022/02/27 08:00:33;;;;;;;2.40;2.20;;;5.40;99.90;;;;;;6341741;22;20480;-93
2022/02/27 08:03:04;;;;;;;2.90;2.00;;;5.40;99.90;;;;;;6349097;22;20170;-93
2022/02/27 08:05:35;;;;;;;2.10;1.90;;;5.40;99.90;;;;;;6349927;22;20603;-92
2022/02/27 08:08:06;;;;;;;2.50;2.10;;;5.40;99.90;;;;;;6345346;22;20190;-92
2022/02/27 08:10:40;;;;;;;3.20;2.30;;;5.40;99.90;;;;;;6340772;22;20620;-93
2022/02/27 08:13:11;;;;;;;2.83;1.80;;;5.50;99.90;;;;;;6316534;22;20210;-93
2022/02/27 08:15:41;;;;;;;2.70;2.03;;;5.40;99.90;;;;;;6290727;22;20207;-93
2022/02/27 08:18:12;;;;;;;2.73;2.27;;;5.40;99.90;;;;;;6277314;22;20213;-94
2022/02/27 08:20:43;;;;;;;2.83;1.80;;;5.40;99.90;;;;;;6278426;22;20171;-93
2022/02/27 08:23:14;;;;;;;2.70;2.23;;;5.40;99.90;;;;;;6281011;22;20221;-92
2022/02/27 08:25:46;;;;;;;3.00;1.90;;;5.40;99.90;;;;;;6282925;22;20217;-93
2022/02/27 08:28:17;;;;;;;2.33;1.60;;;5.40;99.90;;;;;;6282496;22;20520;-91
2022/02/27 08:30:48;;;;;;;2.00;1.77;;;5.40;99.90;;;;;;6284180;22;20168;-93
2022/02/27 08:33:19;;;;;;;4.37;1.80;;;5.40;99.90;;;;;;6279656;22;20164;-93
2022/02/27 08:35:51;;;;;;;2.57;2.00;;;5.40;99.90;;;;;;6279597;22;20674;-93
2022/02/27 08:38:22;;;;;;;2.43;1.80;;;5.40;99.90;;;;;;6278345;22;20201;-91
2022/02/27 08:40:56;;;;;;;3.13;1.70;;;5.40;99.90;;;;;;6278563;22;20597;-93
2022/02/27 08:43:27;;;;;;;2.20;1.73;;;5.50;99.90;;;;;;6281549;22;20197;-93
2022/02/27 08:45:58;;;;;;;2.23;1.60;;;5.40;99.90;;;;;;6276908;22;20170;-93
2022/02/27 08:48:30;;;;;;;1.93;1.63;;;5.40;99.90;;;;;;6277715;22;20257;-93
2022/02/27 08:51:01;;;;;;;2.00;1.40;;;5.40;99.90;;;;;;6279158;22;20167;-93
2022/02/27 08:53:32;;;;;;;2.17;1.60;;;5.40;99.90;;;;;;6281194;22;20198;-93
2022/02/27 08:56:04;;;;;;;3.27;1.40;;;5.40;99.90;;;;;;6282691;22;20222;-93
2022/02/27 08:58:35;;;;;;;2.50;1.73;;;5.40;99.90;;;;;;6277722;22;20167;-94
2022/02/27 09:01:06;;;;;;;1.70;1.50;;;5.40;99.90;;;;;;6280195;22;20197;-94
2022/02/27 09:03:37;;;;;;;2.30;1.57;;;5.40;99.90;;;;;;6300866;22;20247;-91
2022/02/27 09:06:09;;;;;;;2.63;1.70;;;5.50;99.90;;;;;;6299219;22;20175;-92
2022/02/27 09:08:41;;;;;;;2.03;1.60;;;5.50;99.90;;;;;;6288964;22;20179;-93
2022/02/27 09:11:15;;;;;;;1.30;1.20;;;5.50;99.90;;;;;;6299885;22;20176;-93
2022/02/27 09:13:46;;;;;;;1.80;1.50;;;5.40;99.90;;;;;;6316271;22;20181;-93
2022/02/27 09:16:17;;;;;;;1.83;1.67;;;5.50;99.90;;;;;;6318455;22;20201;-92
2022/02/27 09:18:48;;;;;;;3.27;1.70;;;5.40;99.90;;;;;;6317822;22;20178;-93
2022/02/27 09:21:20;;;;;;;1.90;1.70;;;5.40;99.90;;;;;;6313101;22;20183;-92
2022/02/27 09:23:52;;;;;;;1.40;1.27;;;5.50;99.90;;;;;;6289621;22;20162;-92
2022/02/27 09:26:25;;;;;;;2.43;1.70;;;5.50;99.90;;;;;;6322858;22;20231;-93
2022/02/27 09:29:01;;;;;;;2.10;1.60;;;5.60;99.90;;;;;;6316971;22;20166;-92
2022/02/27 09:31:32;;;;;;;1.83;1.63;;;5.60;99.90;;;;;;6316328;22;20209;-92
2022/02/27 09:34:06;;;;;;;2.53;1.80;;;5.60;99.90;;;;;;6313401;22;20223;-93
2022/02/27 09:36:38;;;;;;;2.33;1.90;;;5.50;99.90;;;;;;6311310;22;20217;-93
2022/02/27 09:39:09;;;;;;;2.53;1.60;;;5.50;99.90;;;;;;6308557;22;20199;-93
2022/02/27 09:41:41;;;;;;;2.47;1.63;;;5.50;99.90;;;;;;6309080;22;20198;-92
2022/02/27 09:44:12;;;;;;;2.37;1.97;;;5.50;99.90;;;;;;6311695;22;20197;-92
2022/02/27 09:46:48;;;;;;;2.30;1.60;;;5.50;99.90;;;;;;6312628;22;20166;-93
2022/02/27 09:49:20;;;;;;;2.77;1.80;;;5.50;99.90;;;;;;6316625;22;20173;-93
2022/02/27 09:51:51;;;;;;;2.23;1.97;;;5.50;99.90;;;;;;6310643;22;20167;-93
2022/02/27 09:54:22;;;;;;;2.03;1.83;;;5.50;99.90;;;;;;6311848;22;20177;-93
2022/02/27 09:56:56;;;;;;;2.30;1.83;;;5.50;99.90;;;;;;6308225;22;20198;-93
2022/02/27 09:59:27;;;;;;;1.90;1.60;;;5.50;99.90;;;;;;6309155;22;20245;-93
2022/02/27 10:02:05;;;;;;;2.00;1.80;;;5.50;99.90;;;;;;6311170;22;20163;-94
2022/02/27 10:04:37;;;;;;;2.70;1.63;;;5.60;99.90;;;;;;6309931;22;20172;-93
2022/02/27 10:07:12;;;;;;;2.43;1.80;;;5.60;99.90;;;;;;6310407;22;20194;-92
2022/02/27 10:09:44;;;;;;;2.93;2.00;;;5.60;99.90;;;;;;6308720;22;20174;-92
2022/02/27 10:12:25;;;;;;;4.33;2.23;;;5.60;99.90;;;;;;6308753;22;20246;-93
2022/02/27 10:15:01;;;;;;;2.40;1.87;;;5.60;99.90;;;;;;6312400;22;20725;-91
2022/02/27 10:17:35;;;;;;;3.60;2.00;;;5.60;99.90;;;;;;6312338;22;20201;-92
2022/02/27 10:20:08;;;;;;;2.90;2.20;;;5.70;99.90;;;;;;6314697;22;20258;-93
2022/02/27 10:22:40;;;;;;;4.80;1.70;;;5.70;99.90;;;;;;6313900;22;20182;-92
2022/02/27 10:25:14;;;;;;;1.57;1.40;;;5.70;99.90;;;;;;6310669;22;20193;-93
2022/02/27 10:27:51;;;;;;;1.70;1.37;;;5.70;99.90;;;;;;6287091;22;20185;-94
2022/02/27 10:30:25;;;;;;;1.97;1.17;;;5.70;99.90;;;;;;6311292;22;20166;-94
2022/02/27 10:32:59;;;;;;;1.53;1.40;;;5.70;99.90;;;;;;6312653;22;20180;-92
2022/02/27 10:35:38;;;;;;;1.00;0.93;;;5.70;99.90;;;;;;6315765;22;20170;-93
2022/02/27 10:38:11;;;;;;;1.27;1.17;;;5.70;99.90;;;;;;6310099;22;20280;-92
2022/02/27 10:40:46;;;;;;;0.90;0.90;;;5.70;99.90;;;;;;6311020;22;20215;-93
2022/02/27 10:43:20;;;;;;;1.57;1.30;;;5.70;99.90;;;;;;6312907;22;20220;-92
2022/02/27 10:46:06;;;;;;;1.30;1.20;;;5.70;99.90;;;;;;6312995;22;20174;-93
2022/02/27 10:48:38;;;;;;;1.10;1.00;;;5.70;99.90;;;;;;6309884;22;20180;-92
2022/02/27 10:51:12;;;;;;;1.30;1.20;;;5.60;99.90;;;;;;6311085;22;20178;-92
2022/02/27 10:53:45;;;;;;;1.60;1.30;;;5.60;99.90;;;;;;6322457;22;20190;-92
2022/02/27 10:56:17;;;;;;;1.20;1.10;;;5.50;99.90;;;;;;6318188;22;20616;-94
2022/02/27 10:58:51;;;;;;;1.20;1.10;;;5.50;99.90;;;;;;6289249;22;20194;-93
2022/02/27 11:01:22;;;;;;;1.33;1.23;;;5.50;99.90;;;;;;6313021;22;20253;-92
2022/02/27 11:03:55;;;;;;;2.80;1.37;;;5.50;99.90;;;;;;6317906;22;20213;-92
2022/02/27 11:06:26;;;;;;;1.00;0.90;;;5.50;99.90;;;;;;6310433;22;20175;-93
2022/02/27 11:08:57;;;;;;;1.20;1.03;;;5.40;99.90;;;;;;6317400;22;20175;-93
2022/02/27 11:11:29;;;;;;;1.37;1.10;;;5.40;99.90;;;;;;6310394;22;20186;-93
2022/02/27 11:14:04;;;;;;;1.33;1.23;;;5.30;99.90;;;;;;6314777;22;20186;-93
2022/02/27 11:16:37;;;;;;;1.33;1.23;;;5.30;99.90;;;;;;6311378;22;20651;-94
2022/02/27 11:19:08;;;;;;;1.17;1.07;;;5.30;99.90;;;;;;6310267;22;20166;-93
2022/02/27 11:21:44;;;;;;;1.30;1.20;;;5.30;99.90;;;;;;6320987;22;20193;-92
2022/02/27 11:24:17;;;;;;;1.37;1.27;;;5.30;99.90;;;;;;6321307;22;20182;-93
2022/02/27 11:26:48;;;;;;;1.20;1.10;;;5.30;99.90;;;;;;6333964;22;20184;-95
2022/02/27 11:29:22;;;;;;;1.20;1.10;;;5.40;99.90;;;;;;6334545;22;20174;-93
2022/02/27 11:31:53;;;;;;;1.67;1.00;;;5.40;99.90;;;;;;6330129;22;20158;-92
2022/02/27 11:34:28;;;;;;;1.10;1.00;;;5.40;99.90;;;;;;6317519;22;20183;-92
2022/02/27 11:37:00;;;;;;;1.30;1.20;;;5.50;99.90;;;;;;6292907;22;20197;-93
2022/02/27 11:42:51;;;;;;;1.20;1.10;;;5.50;99.90;;;;;;6334033;22;20183;-92
2022/02/27 11:45:58;;;;;;;1.37;1.27;;;5.60;99.90;;;;;;6333035;22;20170;-93
2022/02/27 11:49:04;;;;;;;1.37;1.10;;;5.60;99.90;;;;;;6325967;22;20181;-94
2022/02/27 11:52:00;;;;;;;1.10;1.00;;;5.60;99.90;;;;;;6323678;22;20167;-92
2022/02/27 11:54:51;;;;;;;1.27;1.00;;;5.60;99.90;;;;;;6284453;22;20170;-93
2022/02/27 11:57:23;;;;;;;1.37;1.00;;;5.70;99.90;;;;;;6308760;22;20213;-92
2022/02/27 12:00:04;;;;;;;2.73;1.00;;;5.70;99.90;;;;;;6310631;22;20163;-91
2022/02/27 12:02:41;;;;;;;2.63;1.00;;;5.70;99.90;;;;;;6313636;22;20173;-92
2022/02/27 12:05:17;;;;;;;1.67;1.10;;;5.70;99.90;;;;;;6314285;22;20224;-92
2022/02/27 12:08:07;;;;;;;2.60;1.20;;;5.70;99.90;;;;;;6308566;22;20205;-92
2022/02/27 12:10:40;;;;;;;1.67;1.10;;;5.70;99.90;;;;;;6309933;22;20490;-96
2022/02/27 12:13:30;;;;;;;1.40;1.30;;;5.80;99.90;;;;;;6309480;22;20193;-93
2022/02/27 12:16:07;;;;;;;3.10;1.23;;;5.80;99.90;;;;;;6315821;22;20172;-94
2022/02/27 12:18:54;;;;;;;1.47;1.20;;;5.80;99.90;;;;;;6310988;22;20202;-92
2022/02/27 12:21:39;;;;;;;1.40;1.30;;;5.80;99.90;;;;;;6311817;22;20182;-92
2022/02/27 12:24:12;;;;;;;1.70;1.17;;;5.80;99.90;;;;;;6285152;22;20166;-93
2022/02/27 12:26:48;;;;;;;3.13;1.57;;;5.80;99.90;;;;;;6309320;22;20181;-93
2022/02/27 12:29:31;;;;;;;1.20;1.10;;;5.80;99.90;;;;;;6309996;22;20653;-93
2022/02/27 12:32:17;;;;;;;1.30;1.20;;;5.90;99.90;;;;;;6309740;22;20248;-92
2022/02/27 12:34:53;;;;;;;1.43;1.33;;;5.90;99.90;;;;;;6310719;22;20167;-92
2022/02/27 12:37:25;;;;;;;1.57;1.07;;;5.90;99.90;;;;;;6308922;22;20228;-92
2022/02/27 12:39:57;;;;;;;1.00;0.90;;;6.00;99.90;;;;;;6309726;22;20250;-94
2022/02/27 12:42:33;;;;;;;0.50;0.50;;;6.10;99.90;;;;;;6312769;22;20194;-92
2022/02/27 12:45:04;;;;;;;0.87;0.73;;;6.50;99.90;;;;;;6315810;22;20173;-92
2022/02/27 12:47:38;;;;;;;0.90;0.60;;;6.70;99.90;;;;;;6311030;22;20190;-92
2022/02/27 12:50:21;;;;;;;0.70;0.70;;;6.80;99.90;;;;;;6311370;22;20167;-93
2022/02/27 12:52:53;;;;;;;0.60;0.60;;;6.80;99.90;;;;;;6288530;22;20205;-94
2022/02/27 12:55:23;;;;;;;0.40;0.40;;;6.90;99.90;;;;;;6309764;22;20187;-93
2022/02/27 12:58:02;;;;;;;0.90;0.57;;;7.00;99.90;;;;;;6313817;22;20213;-93
2022/02/27 13:00:35;;;;;;;1.90;0.60;;;7.30;99.90;;;;;;6309685;22;20193;-94
2022/02/27 13:03:11;;;;;;;0.23;0.20;;;7.50;99.90;;;;;;6312486;22;20167;-92
2022/02/27 13:05:44;;;;;;;0.67;0.50;;;7.80;99.90;;;;;;6312614;22;20167;-93
2022/02/27 13:08:15;;;;;;;0.93;0.80;;;7.90;99.90;;;;;;6308069;22;20251;-94
2022/02/27 13:10:49;;;;;;;0.40;0.40;;;8.00;99.90;;;;;;6309329;22;20201;-94
2022/02/27 13:13:21;;;;;;;0.50;0.50;;;8.10;99.90;;;;;;6311277;22;20185;-94
2022/02/27 13:15:52;;;;;;;0.83;0.60;;;8.10;99.90;;;;;;6311956;22;20204;-94
2022/02/27 13:18:24;;;;;;;0.63;0.50;;;8.00;99.90;;;;;;6309194;22;20288;-95
2022/02/27 13:21:02;;;;;;;1.13;0.77;;;8.00;99.90;;;;;;6310305;22;20189;-94
2022/02/27 13:23:33;;;;;;;3.13;0.70;;;7.90;99.90;;;;;;6309820;22;20178;-95
2022/02/27 13:26:05;;;;;;;1.30;0.60;;;7.80;99.90;;;;;;6310882;22;20166;-94
2022/02/27 13:28:38;;;;;;;1.93;0.70;;;7.70;99.90;;;;;;6309102;22;20178;-92
2022/02/27 13:31:20;;;;;;;1.10;0.67;;;7.60;99.90;;;;;;6289625;22;20173;-93
2022/02/27 13:33:51;;;;;;;0.87;0.67;;;7.60;99.90;;;;;;6284267;22;20167;-93
2022/02/27 13:36:26;;;;;;;1.20;0.60;;;7.60;99.90;;;;;;6310420;22;20192;-94
2022/02/27 13:38:57;;;;;;;1.67;1.57;;;7.60;99.90;;;;;;6309708;22;20214;-95
2022/02/27 13:41:30;;;;;;;0.57;0.43;;;7.60;99.90;;;;;;6328333;22;20189;-94